KWWD/WWD METAR and TAF weather

Enter ICAO airport designator
Station Type Date Time Source
KWWD METAR 2022/11/26 07:56 UTC NOAA

KWWD 260756Z AUTO 30011G18KT 10SM CLR 07/01 A3006 RMK AO2 SLP183 T00720011 $


Station Type Date Time Source
KWWD Decoded METAR 2022/11/26 07:56 UTC NOAA

Wildwood, Cape May County Airport, NJ, United States (KWWD) 39-01N 074-55W
Nov 26, 2022 - 02:56 AM EST / 2022.11.26 0756 UTC
Wind: from the WNW (300 degrees) at 13 MPH (11 KT) gusting to 21 MPH (18 KT):0
Visibility: 10 mile(s):0
Sky conditions: clear
Temperature: 45.0 F (7.2 C)
Dew Point: 34.0 F (1.1 C)
Relative Humidity: 65%
Pressure (altimeter): 30.06 in. Hg (1017 hPa)
ob: KWWD 260756Z AUTO 30011G18KT 10SM CLR 07/01 A3006 RMK AO2 SLP183 T00720011
cycle: 8

Station Type Date Time Source
KWWD TAF UTC NOAA

Error!

Example: see airport list